Terminal Aerodrome Forecast
Issued by NWS Twin Cities, MN

Home | Current Version | Previous Version | Text Only | Print | Product List | Glossary Off
Versions: 1 2 3 4 5 6 7 8 9 10 11 12 13 14 15 16 17 18 19 20 21 22 23 24 25 26 27 28 29

740
FTUS43 KMPX 202337
TAFMSP
TAF
KMSP 202337Z 2100/2206 12007KT 1SM BR OVC002
     FM210600 10004KT 1SM -DZ BR OVC003
     FM211200 08006KT 2SM -RA BR OVC004
     FM212100 VRB03KT 4SM -SHRA BR OVC005=

USA.gov is the U.S. government's official web portal to all federal, state and local government web resources and services.